Flight Track Log - Related Links

Times and Time Zones

All times are in EDT time to prevent confusion due to time zone crossing. See the SKW4515 flight status page for this flight to view local times or setup timezone preferences in your user account.

Time Position Orientation Groundspeed Altitude Reporting Facility
EDT Latitude Longitude Course Direction KTS MPH feet Rate Location/Type
Fri 10:18:28 PM 40.8131 -111.9800 128° Southeast 169 194 5,200  Level Salt Lake Center
Fri 10:18:34 PM 40.8172 -111.9786 14° North 169 194 5,300 1,881 Climbing Salt Lake Center
Fri 10:19:35 PM 40.8769 -111.9867 354° North 229 264 7,300 2,020 Climbing Salt Lake Center
Fri 10:20:15 PM 40.9089 -111.9897 356° North 222 255 8,700 2,656 Climbing Salt Lake Center
Fri 10:20:36 PM 40.9433 -111.9953 353° North 261 300 10,000 2,806 Climbing Salt Lake Center
Fri 10:21:00 PM 40.4632 -111.4311 128° Southeast  Level Estimated
Fri 10:21:17 PM 40.9944 -111.9789 14° North 271 312 11,600  Level Salt Lake Center
Fri 10:22:00 PM 40.3815 -111.2952 128° Southeast  Level Estimated
Fri 10:22:18 PM 41.0000 -111.8764 86° East 316 364 13,100  Level Salt Lake Center
Fri 10:23:00 PM 40.2996 -111.1597 128° Southeast  Level Estimated
Fri 10:23:20 PM 40.9425 -111.7883 131° Southeast 325 374 14,800  Level Salt Lake Center
Fri 10:24:22 PM 40.8800 -111.6922 131° Southeast 344 396 16,300 1,268 Climbing Salt Lake Center
Fri 10:25:23 PM 40.8100 -111.5842 131° Southeast 389 448 17,400 1,415 Climbing Salt Lake Center
Fri 10:26:25 PM 40.7211 -111.4481 131° Southeast 409 471 19,200 1,694 Climbing Salt Lake Center
Fri 10:27:27 PM 40.6683 -111.3142 117° Southeast 420 483 20,900 1,548 Climbing Salt Lake Center
Fri 10:28:29 PM 40.6269 -111.1722 111° Southeast 419 482 22,400 1,306 Climbing Salt Lake Center
Fri 10:29:31 PM 40.5839 -111.0258 111° Southeast 424 488 23,600 1,220 Climbing Salt Lake Center
Fri 10:30:32 PM 40.5397 -110.8744 111° Southeast 439 505 24,900 1,171 Climbing Salt Lake Center
Fri 10:31:34 PM 40.4956 -110.7233 111° Southeast 441 507 26,000 1,210 Climbing Salt Lake Center
Fri 10:32:36 PM 40.4433 -110.5461 111° Southeast 453 521 27,400 1,065 Climbing Salt Lake Center
Fri 10:33:38 PM 40.3986 -110.3978 112° Southeast 455 524 28,200 878 Climbing Salt Lake Center
Fri 10:34:39 PM 40.3647 -110.2131 103° East 466 536 29,200 927 Climbing Salt Lake Center
Fri 10:35:41 PM 40.3394 -110.0542 102° East 466 536 30,100 968 Climbing Salt Lake Center
Fri 10:36:43 PM 40.3078 -109.8675 102° East 470 541 31,200 1,113 Climbing Salt Lake Center
Fri 10:37:45 PM 40.2739 -109.7108 106° East 469 540 32,400 927 Climbing Salt Lake Center
Fri 10:38:46 PM 40.1972 -109.5831 128° Southeast 466 536 33,100 829 Climbing Salt Lake Center
Fri 10:39:48 PM 40.1094 -109.4303 127° Southeast 467 537 34,100 919 Climbing Salt Lake Center
Fri 10:40:50 PM 40.0369 -109.3011 126° Southeast 466 536 35,000 732 Climbing Salt Lake Center
Fri 10:41:51 PM 39.9519 -109.1508 126° Southeast 463 533 35,600 514 Climbing Salt Lake Center
Fri 10:42:35 PM 39.9036 -109.0633 126° Southeast 461 531 35,900 629 Climbing Denver Center
Fri 10:43:36 PM 39.8161 -108.9106 127° Southeast 464 534 36,700 683 Climbing Denver Center
Fri 10:44:38 PM 39.7414 -108.7811 127° Southeast 464 534 37,300 432 Climbing Denver Center
Fri 10:45:41 PM 39.6681 -108.6486 126° Southeast 455 524 37,600  Climbing Denver Center
Fri 10:46:42 PM 39.5922 -108.5167 127° Southeast 466 536 37,300 -290 Descending Denver Center
Fri 10:47:45 PM 39.5014 -108.3586 127° Southeast 490 564 37,000 -145 Descending Denver Center
Fri 10:48:46 PM 39.4222 -108.2217 127° Southeast 494 568 37,000  Level Denver Center
Fri 10:49:48 PM 39.3317 -108.0667 127° Southeast 486 559 37,000  Level Denver Center
Fri 10:50:49 PM 39.2539 -107.9319 127° Southeast 486 559 37,000  Level Denver Center
Fri 10:51:52 PM 39.1636 -107.7764 127° Southeast 486 559 37,000  Level Denver Center
Fri 10:52:53 PM 39.0858 -107.6461 128° Southeast 482 555 37,000  Level Denver Center
Fri 10:53:54 PM 39.0081 -107.5133 127° Southeast 482 555 37,000  Level Denver Center
Fri 10:54:55 PM 38.9161 -107.3586 127° Southeast 486 559 37,000  Level Denver Center
Fri 10:55:57 PM 38.8369 -107.2258 127° Southeast 487 560 37,000  Level Denver Center
Fri 10:56:59 PM 38.7444 -107.0764 128° Southeast 486 559 37,000  Level Denver Center
Fri 10:58:00 PM 38.6625 -106.9386 127° Southeast 485 558 37,000  Level Denver Center
Fri 10:59:04 PM 38.5803 -106.7992 127° Southeast 489 563 37,000  Level Denver Center
Fri 11:00:07 PM 38.4967 -106.6647 128° Southeast 488 562 37,000  Level Denver Center
Fri 11:01:07 PM 38.4150 -106.5272 127° Southeast 487 560 37,000  Level Denver Center
Fri 11:02:07 PM 38.3311 -106.3933 129° Southeast 486 559 37,000  Level Denver Center
Fri 11:03:12 PM 38.2297 -106.2286 128° Southeast 488 562 37,000  Level Denver Center
Fri 11:04:12 PM 38.1436 -106.0842 127° Southeast 495 570 37,000  Level Denver Center
Fri 11:05:13 PM 38.0636 -105.9544 128° Southeast 492 566 37,000  Level Denver Center
Fri 11:06:15 PM 37.9814 -105.8272 129° Southeast 489 563 37,000  Level Denver Center
Fri 11:07:15 PM 37.8889 -105.6756 128° Southeast 489 563 37,000  Level Denver Center
Fri 11:08:16 PM 37.8192 -105.5678 129° Southeast 491 565 37,000  Level Denver Center
Fri 11:09:21 PM 37.7100 -105.3919 128° Southeast 495 570 37,000  Level Denver Center
Fri 11:10:22 PM 37.6267 -105.2628 129° Southeast 495 570 37,000  Level Denver Center
Fri 11:11:23 PM 37.5328 -105.1136 128° Southeast 489 563 37,000  Level Denver Center
Fri 11:12:24 PM 37.4517 -104.9864 129° Southeast 487 560 37,000  Level Denver Center
Fri 11:13:27 PM 37.3681 -104.8586 129° Southeast 488 562 37,000  Level Denver Center
Fri 11:14:29 PM 37.2872 -104.7314 129° Southeast 489 563 37,000  Level Denver Center
Fri 11:15:30 PM 37.1922 -104.5850 129° Southeast 488 562 37,000  Level Denver Center
Fri 11:16:32 PM 37.0961 -104.4367 129° Southeast 489 563 37,000  Level Denver Center
Fri 11:17:33 PM 37.0128 -104.3100 129° Southeast 494 568 37,000  Level Denver Center
Fri 11:18:34 PM 36.9164 -104.1636 129° Southeast 494 568 37,000  Level Denver Center
Fri 11:19:34 PM 36.8342 -104.0386 129° Southeast 491 565 37,000  Level Denver Center
Fri 11:20:38 PM 36.7383 -103.8947 130° Southeast 488 562 37,000  Level Denver Center
Fri 11:21:37 PM 36.6567 -103.7703 129° Southeast 487 560 37,000  Level Denver Center
Fri 11:23:06 PM 36.5278 -103.5794 130° Southeast 485 558 37,000  Level Albuquerque Center
Fri 11:24:07 PM 36.4383 -103.4469 130° Southeast 491 565 37,000  Level Albuquerque Center
Fri 11:25:09 PM 36.3494 -103.3142 130° Southeast 495 570 37,000  Level Albuquerque Center
Fri 11:26:10 PM 36.2619 -103.1847 130° Southeast 487 560 37,000  Level Albuquerque Center
Fri 11:27:11 PM 36.1719 -103.0525 130° Southeast 493 567 37,000  Level Albuquerque Center
Fri 11:28:13 PM 36.0811 -102.9192 130° Southeast 497 572 37,000  Level Albuquerque Center
Fri 11:29:14 PM 35.9803 -102.7717 130° Southeast 503 579 37,000  Level Albuquerque Center
Fri 11:30:15 PM 35.8908 -102.6417 130° Southeast 499 574 37,000  Level Albuquerque Center
Fri 11:31:17 PM 35.8053 -102.5161 130° Southeast 486 559 37,000  Level Albuquerque Center
Fri 11:32:18 PM 35.7181 -102.3903 130° Southeast 484 557 37,000  Level Albuquerque Center
Fri 11:33:19 PM 35.6297 -102.2622 130° Southeast 489 563 37,000  Level Albuquerque Center
Fri 11:34:21 PM 35.5406 -102.1336 130° Southeast 494 568 37,000  Level Albuquerque Center
Fri 11:35:22 PM 35.4497 -102.0058 131° Southeast 497 572 37,000  Level Albuquerque Center
Fri 11:36:23 PM 35.3478 -101.8558 130° Southeast 497 572 37,000  Level Albuquerque Center
Fri 11:37:25 PM 35.2561 -101.7278 131° Southeast 496 571 37,000  Level Albuquerque Center
Fri 11:38:26 PM 35.1522 -101.6408 146° Southeast 477 549 37,000  Level Albuquerque Center
Fri 11:39:27 PM 35.0403 -101.5631 150° Southeast 461 531 37,000  Level Albuquerque Center
Fri 11:40:29 PM 34.9233 -101.4836 151° Southeast 470 541 37,000  Level Albuquerque Center
Fri 11:41:30 PM 34.8094 -101.4050 150° Southeast 472 543 37,000  Level Albuquerque Center
Fri 11:42:31 PM 34.6933 -101.3258 151° Southeast 476 548 37,000  Level Albuquerque Center
Fri 11:43:32 PM 34.5547 -101.2300 150° Southeast 478 550 37,000  Level Albuquerque Center
Fri 11:44:34 PM 34.4406 -101.1525 151° Southeast 475 547 37,000  Level Albuquerque Center
Fri 11:45:35 PM 34.3289 -101.0753 150° Southeast 469 540 37,000  Level Albuquerque Center
Fri 11:46:36 PM 34.2169 -101.0000 151° Southeast 464 534 37,000  Level Albuquerque Center
Fri 11:47:37 PM 34.1069 -100.9244 150° Southeast 460 529 37,000  Level Albuquerque Center
Fri 11:48:39 PM 33.9953 -100.8508 151° Southeast 458 527 37,000  Level Albuquerque Center
Fri 11:49:56 PM 33.8481 -100.7550 152° Southeast 458 527 37,000  Level Fort Worth Center
Fri 11:50:56 PM 33.7339 -100.6806 152° Southeast 462 532 37,000  Level Fort Worth Center
Fri 11:51:57 PM 33.6183 -100.6025 151° Southeast 470 541 37,000  Level Fort Worth Center
Fri 11:52:58 PM 33.5053 -100.5264 151° Southeast 470 541 37,000  Level Fort Worth Center
Fri 11:53:59 PM 33.3928 -100.4542 152° Southeast 463 533 37,000  Level Fort Worth Center
Fri 11:55:00 PM 33.2822 -100.3808 151° Southeast 457 526 37,000  Level Fort Worth Center
Fri 11:56:01 PM 33.1706 -100.3081 151° Southeast 456 525 37,000  Level Fort Worth Center
Fri 11:57:01 PM 33.0569 -100.2333 151° Southeast 461 531 37,000  Level Fort Worth Center
Fri 11:58:02 PM 32.9408 -100.1586 152° Southeast 469 540 37,000  Level Fort Worth Center
Fri 11:59:03 PM 32.8278 -100.0850 151° Southeast 471 542 37,000  Level Fort Worth Center
Sat 12:00:04 AM 32.7008 -100.0022 151° Southeast 471 542 37,000  Level Fort Worth Center
Sat 12:01:05 AM 32.5867 -99.9278 151° Southeast 471 542 37,000  Level Fort Worth Center
Sat 12:02:05 AM 32.4667 -99.8511 152° Southeast 471 542 37,000  Level Fort Worth Center
Sat 12:03:06 AM 32.3514 -99.7758 151° Southeast 472 543 37,000  Level Fort Worth Center
Sat 12:04:07 AM 32.2425 -99.6781 143° Southeast 488 562 37,000  Level Fort Worth Center
Sat 12:05:08 AM 32.1369 -99.5692 139° Southeast 499 574 37,000 -443 Level Fort Worth Center
Sat 12:06:09 AM 32.0344 -99.4656 139° Southeast 489 563 36,100 -1,180 Descending Fort Worth Center
Sat 12:07:10 AM 31.9331 -99.3619 139° Southeast 484 557 34,600 -1,488 Descending Fort Worth Center
Sat 12:08:10 AM 31.8333 -99.2611 139° Southeast 477 549 33,100 -1,636 Descending Fort Worth Center
Sat 12:09:11 AM 31.7139 -99.1419 140° Southeast 472 543 31,300 -1,574 Descending Fort Worth Center
Sat 12:10:12 AM 31.6144 -99.0447 140° Southeast 472 543 29,900 -1,309 Descending Fort Worth Center
Sat 12:11:01 AM 31.5453 -98.9758 140° Southeast 476 548 28,900 -1,101 Descending Houston Center
Sat 12:12:01 AM 31.4417 -98.8736 140° Southeast 479 551 27,900 -1,240 Descending Houston Center
Sat 12:13:02 AM 31.3306 -98.7642 140° Southeast 491 565 26,400 -1,884 Descending Houston Center
Sat 12:14:02 AM 31.2378 -98.6719 140° Southeast 464 534 24,100 -2,430 Descending Houston Center
Sat 12:15:03 AM 31.1453 -98.5814 140° Southeast 437 503 21,500 -2,380 Descending Houston Center
Sat 12:16:03 AM 31.0556 -98.4953 141° Southeast 418 481 19,300 -2,132 Descending Houston Center
Sat 12:17:04 AM 30.9714 -98.4139 140° Southeast 396 456 17,200 -2,132 Descending Houston Center
Sat 12:18:04 AM 30.8911 -98.3353 140° Southeast 379 436 15,000 -1,983 Descending Houston Center
Sat 12:19:05 AM 30.8036 -98.2506 140° Southeast 351 404 13,200 -1,672 Descending Houston Center
Sat 12:20:06 AM 30.7356 -98.1842 140° Southeast 324 373 11,600 -1,587 Descending Houston Center
Sat 12:21:06 AM 30.6722 -98.1217 140° Southeast 305 351 10,000 -1,636 Descending Houston Center
Sat 12:22:07 AM 30.6197 -98.0497 130° Southeast 297 342 8,300 -1,488 Descending Houston Center
Sat 12:23:07 AM 30.5792 -97.9731 122° Southeast 297 342 7,000 -942 Descending Houston Center
Sat 12:24:08 AM 30.5869 -97.8903 84° East 262 302 6,400 -793 Descending Houston Center
Sat 12:25:08 AM 30.5589 -97.8244 116° Southeast 249 287 5,400 -694 Descending Houston Center
Sat 12:26:09 AM 30.5075 -97.7750 140° Southeast 241 277 5,000 -645 Descending Houston Center
Sat 12:27:09 AM 30.4572 -97.7339 145° Southeast 226 260 4,100 -545 Descending Houston Center
Sat 12:28:10 AM 30.4094 -97.7094 156° South 195 224 3,900 -545 Descending Houston Center
Sat 12:29:10 AM 30.3672 -97.6858 154° Southeast 176 203 3,000 -545 Descending Houston Center
Sat 12:30:11 AM 30.3247 -97.6803 174° South 160 184 2,800 -397 Descending Houston Center
Sat 12:31:11 AM 30.2956 -97.6808 181° South 141 162 2,200 -595 Descending Houston Center
Sat 12:32:12 AM 30.2644 -97.6806 180° South 122 140 1,600 -545 Descending Houston Center
Sat 12:33:12 AM 30.2261 -97.6786 177° South 119 137 1,100 -500 Descending Houston Center

Login

Don't have an account? Register now (free) for customized features, flight alerts, and more!